sensor_id;sensor_type;location;lat;lon;timestamp;P1;durP1;ratioP1;P2;durP2;ratioP2
2570;SDS011;1295;51.130;6.732;2022-09-21T00:01:19;65.97;;;19.47;;
2570;SDS011;1295;51.130;6.732;2022-09-21T00:03:43;64.80;;;20.43;;
2570;SDS011;1295;51.130;6.732;2022-09-21T00:06:11;66.37;;;17.77;;
2570;SDS011;1295;51.130;6.732;2022-09-21T00:08:36;69.80;;;18.73;;
2570;SDS011;1295;51.130;6.732;2022-09-21T00:11:02;65.03;;;17.57;;
2570;SDS011;1295;51.130;6.732;2022-09-21T00:13:27;65.23;;;16.70;;
2570;SDS011;1295;51.130;6.732;2022-09-21T00:15:53;67.10;;;20.17;;
2570;SDS011;1295;51.130;6.732;2022-09-21T00:18:19;64.80;;;19.47;;
2570;SDS011;1295;51.130;6.732;2022-09-21T00:20:46;66.23;;;18.47;;
2570;SDS011;1295;51.130;6.732;2022-09-21T00:23:11;65.27;;;18.00;;
2570;SDS011;1295;51.130;6.732;2022-09-21T00:25:37;70.03;;;18.40;;
2570;SDS011;1295;51.130;6.732;2022-09-21T00:28:02;66.83;;;16.57;;
2570;SDS011;1295;51.130;6.732;2022-09-21T00:30:28;64.17;;;14.77;;
2570;SDS011;1295;51.130;6.732;2022-09-21T00:32:54;63.57;;;17.53;;
2570;SDS011;1295;51.130;6.732;2022-09-21T00:35:19;63.80;;;16.80;;
2570;SDS011;1295;51.130;6.732;2022-09-21T00:37:45;69.80;;;15.80;;
2570;SDS011;1295;51.130;6.732;2022-09-21T00:40:11;63.30;;;13.30;;
2570;SDS011;1295;51.130;6.732;2022-09-21T00:42:36;65.50;;;13.50;;
2570;SDS011;1295;51.130;6.732;2022-09-21T00:45:02;64.60;;;15.13;;
2570;SDS011;1295;51.130;6.732;2022-09-21T00:47:30;62.77;;;12.80;;
2570;SDS011;1295;51.130;6.732;2022-09-21T00:49:55;64.37;;;12.27;;
2570;SDS011;1295;51.130;6.732;2022-09-21T00:52:21;62.40;;;12.10;;
2570;SDS011;1295;51.130;6.732;2022-09-21T00:54:50;66.13;;;13.40;;
2570;SDS011;1295;51.130;6.732;2022-09-21T00:57:14;64.33;;;13.87;;
2570;SDS011;1295;51.130;6.732;2022-09-21T00:59:39;61.77;;;12.17;;
2570;SDS011;1295;51.130;6.732;2022-09-21T01:02:12;60.60;;;10.27;;
2570;SDS011;1295;51.130;6.732;2022-09-21T01:04:38;62.30;;;12.37;;
2570;SDS011;1295;51.130;6.732;2022-09-21T01:07:05;62.97;;;10.40;;
2570;SDS011;1295;51.130;6.732;2022-09-21T01:09:29;61.10;;;11.37;;
2570;SDS011;1295;51.130;6.732;2022-09-21T01:12:02;63.80;;;11.97;;
2570;SDS011;1295;51.130;6.732;2022-09-21T01:14:30;60.07;;;10.37;;
2570;SDS011;1295;51.130;6.732;2022-09-21T01:17:11;62.03;;;10.40;;
2570;SDS011;1295;51.130;6.732;2022-09-21T01:22:16;69.17;;;13.67;;
2570;SDS011;1295;51.130;6.732;2022-09-21T01:24:49;61.07;;;9.97;;
2570;SDS011;1295;51.130;6.732;2022-09-21T01:27:25;63.67;;;11.07;;
2570;SDS011;1295;51.130;6.732;2022-09-21T01:29:54;61.03;;;9.60;;
2570;SDS011;1295;51.130;6.732;2022-09-21T01:32:21;60.43;;;9.70;;
2570;SDS011;1295;51.130;6.732;2022-09-21T01:34:50;64.60;;;9.57;;
2570;SDS011;1295;51.130;6.732;2022-09-21T01:37:16;61.23;;;9.77;;
2570;SDS011;1295;51.130;6.732;2022-09-21T01:39:41;59.70;;;9.80;;
2570;SDS011;1295;51.130;6.732;2022-09-21T01:42:06;65.40;;;9.23;;
2570;SDS011;1295;51.130;6.732;2022-09-21T01:44:32;63.50;;;9.97;;
2570;SDS011;1295;51.130;6.732;2022-09-21T01:46:59;63.57;;;9.50;;
2570;SDS011;1295;51.130;6.732;2022-09-21T01:49:26;64.40;;;9.00;;
2570;SDS011;1295;51.130;6.732;2022-09-21T01:51:54;62.20;;;9.50;;
2570;SDS011;1295;51.130;6.732;2022-09-21T01:54:19;61.07;;;9.73;;
2570;SDS011;1295;51.130;6.732;2022-09-21T01:56:45;66.57;;;9.37;;
2570;SDS011;1295;51.130;6.732;2022-09-21T01:59:15;64.03;;;10.50;;
2570;SDS011;1295;51.130;6.732;2022-09-21T02:01:40;65.50;;;9.00;;
2570;SDS011;1295;51.130;6.732;2022-09-21T02:04:08;63.57;;;8.90;;
2570;SDS011;1295;51.130;6.732;2022-09-21T02:06:31;61.30;;;9.57;;
2570;SDS011;1295;51.130;6.732;2022-09-21T02:08:56;66.63;;;10.00;;
2570;SDS011;1295;51.130;6.732;2022-09-21T02:11:22;62.83;;;9.80;;
2570;SDS011;1295;51.130;6.732;2022-09-21T02:13:48;62.47;;;9.17;;
2570;SDS011;1295;51.130;6.732;2022-09-21T02:16:19;65.27;;;9.57;;
2570;SDS011;1295;51.130;6.732;2022-09-21T02:21:49;63.10;;;9.73;;
2570;SDS011;1295;51.130;6.732;2022-09-21T02:24:19;62.83;;;9.80;;
2570;SDS011;1295;51.130;6.732;2022-09-21T02:26:54;63.67;;;9.60;;
2570;SDS011;1295;51.130;6.732;2022-09-21T02:29:24;63.20;;;9.77;;
2570;SDS011;1295;51.130;6.732;2022-09-21T02:31:52;60.67;;;8.17;;
2570;SDS011;1295;51.130;6.732;2022-09-21T02:34:19;68.17;;;9.93;;
2570;SDS011;1295;51.130;6.732;2022-09-21T02:36:48;63.97;;;9.37;;
2570;SDS011;1295;51.130;6.732;2022-09-21T02:39:16;63.20;;;9.00;;
2570;SDS011;1295;51.130;6.732;2022-09-21T02:41:42;60.93;;;8.70;;
2570;SDS011;1295;51.130;6.732;2022-09-21T02:46:51;62.17;;;10.30;;
2570;SDS011;1295;51.130;6.732;2022-09-21T02:49:17;64.40;;;9.30;;
2570;SDS011;1295;51.130;6.732;2022-09-21T02:51:43;61.50;;;8.80;;
2570;SDS011;1295;51.130;6.732;2022-09-21T02:54:09;63.87;;;8.70;;
2570;SDS011;1295;51.130;6.732;2022-09-21T02:56:34;65.40;;;9.77;;
2570;SDS011;1295;51.130;6.732;2022-09-21T02:59:00;64.20;;;10.23;;
2570;SDS011;1295;51.130;6.732;2022-09-21T03:01:26;60.83;;;8.90;;
2570;SDS011;1295;51.130;6.732;2022-09-21T03:03:51;63.00;;;9.30;;
2570;SDS011;1295;51.130;6.732;2022-09-21T03:06:17;64.30;;;9.53;;
2570;SDS011;1295;51.130;6.732;2022-09-21T03:08:43;61.20;;;9.40;;
2570;SDS011;1295;51.130;6.732;2022-09-21T03:11:08;70.43;;;11.20;;
2570;SDS011;1295;51.130;6.732;2022-09-21T03:13:34;68.97;;;9.83;;
2570;SDS011;1295;51.130;6.732;2022-09-21T03:16:00;61.83;;;9.10;;
2570;SDS011;1295;51.130;6.732;2022-09-21T03:18:26;61.43;;;9.40;;
2570;SDS011;1295;51.130;6.732;2022-09-21T03:20:51;60.37;;;8.90;;
2570;SDS011;1295;51.130;6.732;2022-09-21T03:23:17;68.63;;;9.37;;
2570;SDS011;1295;51.130;6.732;2022-09-21T03:25:43;61.90;;;7.90;;
2570;SDS011;1295;51.130;6.732;2022-09-21T03:28:09;62.40;;;8.20;;
2570;SDS011;1295;51.130;6.732;2022-09-21T03:30:35;60.00;;;8.00;;
2570;SDS011;1295;51.130;6.732;2022-09-21T03:33:00;65.03;;;9.00;;
2570;SDS011;1295;51.130;6.732;2022-09-21T03:35:26;64.67;;;8.97;;
2570;SDS011;1295;51.130;6.732;2022-09-21T03:37:51;61.90;;;7.43;;
2570;SDS011;1295;51.130;6.732;2022-09-21T03:40:17;66.57;;;8.73;;
2570;SDS011;1295;51.130;6.732;2022-09-21T03:42:43;62.37;;;8.67;;
2570;SDS011;1295;51.130;6.732;2022-09-21T03:45:09;61.60;;;8.17;;
2570;SDS011;1295;51.130;6.732;2022-09-21T03:47:35;63.90;;;8.07;;
2570;SDS011;1295;51.130;6.732;2022-09-21T03:50:01;60.20;;;7.53;;
2570;SDS011;1295;51.130;6.732;2022-09-21T03:52:26;65.23;;;8.53;;
2570;SDS011;1295;51.130;6.732;2022-09-21T03:54:52;62.90;;;9.47;;
2570;SDS011;1295;51.130;6.732;2022-09-21T03:57:18;61.77;;;8.13;;
2570;SDS011;1295;51.130;6.732;2022-09-21T03:59:43;63.47;;;8.70;;
2570;SDS011;1295;51.130;6.732;2022-09-21T04:02:10;66.60;;;9.17;;
2570;SDS011;1295;51.130;6.732;2022-09-21T04:04:35;72.33;;;9.13;;
2570;SDS011;1295;51.130;6.732;2022-09-21T04:07:01;69.53;;;10.00;;
2570;SDS011;1295;51.130;6.732;2022-09-21T04:09:27;69.63;;;9.20;;
2570;SDS011;1295;51.130;6.732;2022-09-21T04:11:52;62.20;;;9.40;;
2570;SDS011;1295;51.130;6.732;2022-09-21T04:14:19;65.80;;;9.67;;
2570;SDS011;1295;51.130;6.732;2022-09-21T04:16:45;67.17;;;9.37;;
2570;SDS011;1295;51.130;6.732;2022-09-21T04:19:11;67.83;;;9.47;;
2570;SDS011;1295;51.130;6.732;2022-09-21T04:21:41;65.57;;;10.07;;
2570;SDS011;1295;51.130;6.732;2022-09-21T04:24:07;66.87;;;11.50;;
2570;SDS011;1295;51.130;6.732;2022-09-21T04:26:33;65.87;;;9.70;;
2570;SDS011;1295;51.130;6.732;2022-09-21T04:28:59;65.70;;;8.90;;
2570;SDS011;1295;51.130;6.732;2022-09-21T04:31:25;67.00;;;9.90;;
2570;SDS011;1295;51.130;6.732;2022-09-21T04:33:52;69.50;;;10.10;;
2570;SDS011;1295;51.130;6.732;2022-09-21T04:36:18;66.37;;;10.17;;
2570;SDS011;1295;51.130;6.732;2022-09-21T04:38:43;66.97;;;10.80;;
2570;SDS011;1295;51.130;6.732;2022-09-21T04:41:09;66.47;;;8.87;;
2570;SDS011;1295;51.130;6.732;2022-09-21T04:43:35;69.43;;;9.90;;
2570;SDS011;1295;51.130;6.732;2022-09-21T04:46:03;65.60;;;9.80;;
2570;SDS011;1295;51.130;6.732;2022-09-21T04:48:29;67.87;;;9.60;;
2570;SDS011;1295;51.130;6.732;2022-09-21T04:50:55;65.97;;;9.23;;
2570;SDS011;1295;51.130;6.732;2022-09-21T04:53:20;61.67;;;8.50;;
2570;SDS011;1295;51.130;6.732;2022-09-21T04:55:46;66.00;;;9.03;;
2570;SDS011;1295;51.130;6.732;2022-09-21T04:58:12;61.10;;;8.87;;
2570;SDS011;1295;51.130;6.732;2022-09-21T05:00:38;62.57;;;8.90;;
2570;SDS011;1295;51.130;6.732;2022-09-21T05:03:04;64.23;;;8.70;;
2570;SDS011;1295;51.130;6.732;2022-09-21T05:05:29;65.07;;;7.63;;
2570;SDS011;1295;51.130;6.732;2022-09-21T05:07:55;62.27;;;8.60;;
2570;SDS011;1295;51.130;6.732;2022-09-21T05:10:20;63.40;;;9.00;;
2570;SDS011;1295;51.130;6.732;2022-09-21T05:12:46;65.40;;;7.60;;
2570;SDS011;1295;51.130;6.732;2022-09-21T05:15:12;62.63;;;8.27;;
2570;SDS011;1295;51.130;6.732;2022-09-21T05:17:37;63.87;;;8.60;;
2570;SDS011;1295;51.130;6.732;2022-09-21T05:20:03;63.30;;;8.40;;
2570;SDS011;1295;51.130;6.732;2022-09-21T05:22:30;63.67;;;8.93;;
2570;SDS011;1295;51.130;6.732;2022-09-21T05:24:56;63.30;;;9.40;;
2570;SDS011;1295;51.130;6.732;2022-09-21T05:27:21;63.30;;;9.83;;
2570;SDS011;1295;51.130;6.732;2022-09-21T05:29:47;66.83;;;10.00;;
2570;SDS011;1295;51.130;6.732;2022-09-21T05:32:19;66.57;;;10.23;;
2570;SDS011;1295;51.130;6.732;2022-09-21T05:34:52;68.60;;;12.73;;
2570;SDS011;1295;51.130;6.732;2022-09-21T05:37:29;67.63;;;11.47;;
2570;SDS011;1295;51.130;6.732;2022-09-21T05:39:51;68.27;;;10.20;;
2570;SDS011;1295;51.130;6.732;2022-09-21T05:42:17;63.73;;;8.60;;
2570;SDS011;1295;51.130;6.732;2022-09-21T05:44:43;63.40;;;9.50;;
2570;SDS011;1295;51.130;6.732;2022-09-21T05:47:21;63.43;;;9.80;;
2570;SDS011;1295;51.130;6.732;2022-09-21T05:49:48;65.40;;;9.13;;
2570;SDS011;1295;51.130;6.732;2022-09-21T05:52:32;65.00;;;9.60;;
2570;SDS011;1295;51.130;6.732;2022-09-21T05:55:01;69.67;;;9.63;;
2570;SDS011;1295;51.130;6.732;2022-09-21T05:57:33;66.80;;;9.47;;
2570;SDS011;1295;51.130;6.732;2022-09-21T06:00:01;66.67;;;10.30;;
2570;SDS011;1295;51.130;6.732;2022-09-21T06:02:42;71.70;;;12.97;;
2570;SDS011;1295;51.130;6.732;2022-09-21T06:05:09;70.40;;;11.50;;
2570;SDS011;1295;51.130;6.732;2022-09-21T06:07:35;63.77;;;10.20;;
2570;SDS011;1295;51.130;6.732;2022-09-21T06:10:00;64.60;;;10.67;;
2570;SDS011;1295;51.130;6.732;2022-09-21T06:12:26;66.40;;;10.20;;
2570;SDS011;1295;51.130;6.732;2022-09-21T06:14:52;63.50;;;8.90;;
2570;SDS011;1295;51.130;6.732;2022-09-21T06:17:17;63.90;;;9.07;;
2570;SDS011;1295;51.130;6.732;2022-09-21T06:19:43;69.40;;;11.20;;
2570;SDS011;1295;51.130;6.732;2022-09-21T06:22:08;67.70;;;11.10;;
2570;SDS011;1295;51.130;6.732;2022-09-21T06:24:35;65.87;;;10.53;;
2570;SDS011;1295;51.130;6.732;2022-09-21T06:27:00;65.37;;;10.80;;
2570;SDS011;1295;51.130;6.732;2022-09-21T06:29:27;66.97;;;11.77;;
2570;SDS011;1295;51.130;6.732;2022-09-21T06:31:53;67.33;;;11.63;;
2570;SDS011;1295;51.130;6.732;2022-09-21T06:34:19;64.77;;;11.97;;
2570;SDS011;1295;51.130;6.732;2022-09-21T06:36:51;70.63;;;13.27;;
2570;SDS011;1295;51.130;6.732;2022-09-21T06:39:17;63.70;;;12.50;;
2570;SDS011;1295;51.130;6.732;2022-09-21T06:41:43;65.33;;;11.80;;
2570;SDS011;1295;51.130;6.732;2022-09-21T06:44:08;64.00;;;12.40;;
2570;SDS011;1295;51.130;6.732;2022-09-21T06:46:34;64.03;;;13.57;;
2570;SDS011;1295;51.130;6.732;2022-09-21T06:48:59;71.50;;;15.60;;
2570;SDS011;1295;51.130;6.732;2022-09-21T06:51:25;66.80;;;19.67;;
2570;SDS011;1295;51.130;6.732;2022-09-21T06:53:53;71.37;;;25.23;;
2570;SDS011;1295;51.130;6.732;2022-09-21T06:56:18;65.23;;;20.83;;
2570;SDS011;1295;51.130;6.732;2022-09-21T06:58:44;67.07;;;18.00;;
2570;SDS011;1295;51.130;6.732;2022-09-21T07:01:10;74.67;;;23.83;;
2570;SDS011;1295;51.130;6.732;2022-09-21T07:03:35;97.63;;;87.30;;
2570;SDS011;1295;51.130;6.732;2022-09-21T07:06:01;157.90;;;145.33;;
2570;SDS011;1295;51.130;6.732;2022-09-21T07:08:26;110.23;;;99.37;;
2570;SDS011;1295;51.130;6.732;2022-09-21T07:10:52;105.57;;;94.47;;
2570;SDS011;1295;51.130;6.732;2022-09-21T07:13:17;80.03;;;47.10;;
2570;SDS011;1295;51.130;6.732;2022-09-21T07:15:43;84.43;;;59.20;;
2570;SDS011;1295;51.130;6.732;2022-09-21T07:18:09;85.70;;;46.30;;
2570;SDS011;1295;51.130;6.732;2022-09-21T07:20:35;76.17;;;35.73;;
2570;SDS011;1295;51.130;6.732;2022-09-21T07:23:08;62.23;;;12.63;;
2570;SDS011;1295;51.130;6.732;2022-09-21T07:25:27;70.10;;;26.17;;
2570;SDS011;1295;51.130;6.732;2022-09-21T07:27:53;79.50;;;36.23;;
2570;SDS011;1295;51.130;6.732;2022-09-21T07:30:19;92.63;;;61.20;;
2570;SDS011;1295;51.130;6.732;2022-09-21T07:32:45;85.43;;;44.53;;
2570;SDS011;1295;51.130;6.732;2022-09-21T07:35:11;92.80;;;72.63;;
2570;SDS011;1295;51.130;6.732;2022-09-21T07:37:52;89.13;;;43.20;;
2570;SDS011;1295;51.130;6.732;2022-09-21T07:40:18;91.93;;;39.43;;
2570;SDS011;1295;51.130;6.732;2022-09-21T07:42:43;88.47;;;64.37;;
2570;SDS011;1295;51.130;6.732;2022-09-21T07:45:09;84.70;;;41.00;;
2570;SDS011;1295;51.130;6.732;2022-09-21T07:47:35;82.00;;;54.07;;
2570;SDS011;1295;51.130;6.732;2022-09-21T07:50:01;116.27;;;104.23;;
2570;SDS011;1295;51.130;6.732;2022-09-21T07:52:27;74.90;;;31.87;;
2570;SDS011;1295;51.130;6.732;2022-09-21T07:54:52;82.07;;;45.40;;
2570;SDS011;1295;51.130;6.732;2022-09-21T07:57:18;86.13;;;35.87;;
2570;SDS011;1295;51.130;6.732;2022-09-21T07:59:50;84.37;;;33.97;;
2570;SDS011;1295;51.130;6.732;2022-09-21T08:02:15;78.23;;;46.23;;
2570;SDS011;1295;51.130;6.732;2022-09-21T08:04:41;71.80;;;17.73;;
2570;SDS011;1295;51.130;6.732;2022-09-21T08:07:06;66.93;;;23.10;;
2570;SDS011;1295;51.130;6.732;2022-09-21T08:09:32;64.70;;;18.13;;
2570;SDS011;1295;51.130;6.732;2022-09-21T08:11:58;131.77;;;119.13;;
2570;SDS011;1295;51.130;6.732;2022-09-21T08:14:24;101.07;;;81.13;;
2570;SDS011;1295;51.130;6.732;2022-09-21T08:16:50;95.00;;;74.73;;
2570;SDS011;1295;51.130;6.732;2022-09-21T08:19:16;69.60;;;28.00;;
2570;SDS011;1295;51.130;6.732;2022-09-21T08:21:42;68.50;;;25.30;;
2570;SDS011;1295;51.130;6.732;2022-09-21T08:24:08;133.97;;;121.23;;
2570;SDS011;1295;51.130;6.732;2022-09-21T08:26:34;154.50;;;141.03;;
2570;SDS011;1295;51.130;6.732;2022-09-21T08:28:59;70.90;;;22.30;;
2570;SDS011;1295;51.130;6.732;2022-09-21T08:31:25;130.97;;;118.07;;
2570;SDS011;1295;51.130;6.732;2022-09-21T08:33:51;84.50;;;44.60;;
2570;SDS011;1295;51.130;6.732;2022-09-21T08:36:17;168.53;;;154.37;;
2570;SDS011;1295;51.130;6.732;2022-09-21T08:38:42;98.70;;;88.40;;
2570;SDS011;1295;51.130;6.732;2022-09-21T08:43:48;113.37;;;100.67;;
2570;SDS011;1295;51.130;6.732;2022-09-21T08:46:14;93.43;;;59.87;;
2570;SDS011;1295;51.130;6.732;2022-09-21T08:48:39;92.23;;;52.70;;
2570;SDS011;1295;51.130;6.732;2022-09-21T08:51:05;77.50;;;48.33;;
2570;SDS011;1295;51.130;6.732;2022-09-21T08:53:32;77.90;;;39.33;;
2570;SDS011;1295;51.130;6.732;2022-09-21T08:55:56;83.67;;;39.60;;
2570;SDS011;1295;51.130;6.732;2022-09-21T08:58:23;72.53;;;26.63;;
2570;SDS011;1295;51.130;6.732;2022-09-21T09:00:51;82.77;;;34.10;;
2570;SDS011;1295;51.130;6.732;2022-09-21T09:03:19;72.97;;;25.00;;
2570;SDS011;1295;51.130;6.732;2022-09-21T09:05:51;90.87;;;57.10;;
2570;SDS011;1295;51.130;6.732;2022-09-21T09:08:27;71.77;;;24.50;;
2570;SDS011;1295;51.130;6.732;2022-09-21T09:11:20;64.77;;;16.70;;
2570;SDS011;1295;51.130;6.732;2022-09-21T09:13:57;77.50;;;27.43;;
2570;SDS011;1295;51.130;6.732;2022-09-21T09:16:36;73.63;;;27.40;;
2570;SDS011;1295;51.130;6.732;2022-09-21T09:21:49;102.53;;;59.83;;
2570;SDS011;1295;51.130;6.732;2022-09-21T09:24:18;83.00;;;38.80;;
2570;SDS011;1295;51.130;6.732;2022-09-21T09:26:53;95.57;;;64.87;;
2570;SDS011;1295;51.130;6.732;2022-09-21T09:29:23;80.50;;;26.87;;
2570;SDS011;1295;51.130;6.732;2022-09-21T09:31:46;78.97;;;35.20;;
2570;SDS011;1295;51.130;6.732;2022-09-21T09:34:14;86.20;;;31.83;;
2570;SDS011;1295;51.130;6.732;2022-09-21T09:36:40;178.30;;;163.23;;
2570;SDS011;1295;51.130;6.732;2022-09-21T09:39:09;91.60;;;66.63;;
2570;SDS011;1295;51.130;6.732;2022-09-21T09:41:36;71.93;;;31.07;;
2570;SDS011;1295;51.130;6.732;2022-09-21T09:44:18;73.70;;;23.83;;
2570;SDS011;1295;51.130;6.732;2022-09-21T09:49:56;137.03;;;124.10;;
2570;SDS011;1295;51.130;6.732;2022-09-21T09:52:32;80.70;;;37.03;;
2570;SDS011;1295;51.130;6.732;2022-09-21T09:54:58;70.20;;;27.40;;
2570;SDS011;1295;51.130;6.732;2022-09-21T09:57:27;80.43;;;34.03;;
2570;SDS011;1295;51.130;6.732;2022-09-21T09:59:53;77.47;;;46.00;;
2570;SDS011;1295;51.130;6.732;2022-09-21T10:02:20;85.80;;;60.63;;
2570;SDS011;1295;51.130;6.732;2022-09-21T10:07:33;77.83;;;39.00;;
2570;SDS011;1295;51.130;6.732;2022-09-21T10:09:57;81.90;;;37.80;;
2570;SDS011;1295;51.130;6.732;2022-09-21T10:12:23;73.03;;;29.73;;
2570;SDS011;1295;51.130;6.732;2022-09-21T10:14:50;73.03;;;26.90;;
2570;SDS011;1295;51.130;6.732;2022-09-21T10:17:15;103.70;;;92.50;;
2570;SDS011;1295;51.130;6.732;2022-09-21T10:19:40;92.23;;;65.53;;
2570;SDS011;1295;51.130;6.732;2022-09-21T10:22:05;87.87;;;56.17;;
2570;SDS011;1295;51.130;6.732;2022-09-21T10:24:33;81.60;;;14.80;;
2570;SDS011;1295;51.130;6.732;2022-09-21T10:27:02;79.10;;;43.80;;
2570;SDS011;1295;51.130;6.732;2022-09-21T10:29:29;88.00;;;55.50;;
2570;SDS011;1295;51.130;6.732;2022-09-21T10:32:00;90.33;;;76.00;;
2570;SDS011;1295;51.130;6.732;2022-09-21T10:34:27;86.17;;;46.13;;
2570;SDS011;1295;51.130;6.732;2022-09-21T10:36:52;143.07;;;131.43;;
2570;SDS011;1295;51.130;6.732;2022-09-21T10:39:19;80.07;;;46.70;;
2570;SDS011;1295;51.130;6.732;2022-09-21T10:41:48;82.57;;;58.93;;
2570;SDS011;1295;51.130;6.732;2022-09-21T10:44:14;87.30;;;51.67;;
2570;SDS011;1295;51.130;6.732;2022-09-21T10:46:39;170.37;;;157.17;;
2570;SDS011;1295;51.130;6.732;2022-09-21T10:49:04;191.40;;;178.27;;
2570;SDS011;1295;51.130;6.732;2022-09-21T10:51:30;183.27;;;170.43;;
2570;SDS011;1295;51.130;6.732;2022-09-21T10:53:55;94.50;;;79.63;;
2570;SDS011;1295;51.130;6.732;2022-09-21T10:56:21;255.33;;;239.83;;
2570;SDS011;1295;51.130;6.732;2022-09-21T10:59:08;194.63;;;181.13;;
2570;SDS011;1295;51.130;6.732;2022-09-21T11:01:20;131.07;;;119.90;;
2570;SDS011;1295;51.130;6.732;2022-09-21T11:03:48;279.13;;;262.27;;
2570;SDS011;1295;51.130;6.732;2022-09-21T11:06:14;250.20;;;234.47;;
2570;SDS011;1295;51.130;6.732;2022-09-21T11:11:28;300.83;;;283.50;;
2570;SDS011;1295;51.130;6.732;2022-09-21T11:13:49;299.53;;;282.07;;
2570;SDS011;1295;51.130;6.732;2022-09-21T11:16:24;98.50;;;87.60;;
2570;SDS011;1295;51.130;6.732;2022-09-21T11:18:57;107.30;;;96.60;;
2570;SDS011;1295;51.130;6.732;2022-09-21T11:21:26;336.97;;;316.17;;
2570;SDS011;1295;51.130;6.732;2022-09-21T11:23:54;339.50;;;319.63;;
2570;SDS011;1295;51.130;6.732;2022-09-21T11:26:23;380.60;;;358.17;;
2570;SDS011;1295;51.130;6.732;2022-09-21T11:28:54;85.63;;;65.73;;
2570;SDS011;1295;51.130;6.732;2022-09-21T11:31:32;347.37;;;327.43;;
2570;SDS011;1295;51.130;6.732;2022-09-21T11:34:22;93.67;;;83.23;;
2570;SDS011;1295;51.130;6.732;2022-09-21T11:36:57;221.20;;;206.10;;
2570;SDS011;1295;51.130;6.732;2022-09-21T11:39:31;65.30;;;12.63;;
2570;SDS011;1295;51.130;6.732;2022-09-21T11:41:57;157.63;;;144.70;;
2570;SDS011;1295;51.130;6.732;2022-09-21T11:44:43;329.93;;;310.53;;
2570;SDS011;1295;51.130;6.732;2022-09-21T11:47:16;346.80;;;326.73;;
2570;SDS011;1295;51.130;6.732;2022-09-21T11:49:48;60.00;;;12.07;;
2570;SDS011;1295;51.130;6.732;2022-09-21T11:52:33;303.57;;;284.80;;
2570;SDS011;1295;51.130;6.732;2022-09-21T11:55:03;81.30;;;57.03;;
2570;SDS011;1295;51.130;6.732;2022-09-21T11:57:32;71.50;;;31.90;;
2570;SDS011;1295;51.130;6.732;2022-09-21T12:05:30;65.30;;;19.47;;
2570;SDS011;1295;51.130;6.732;2022-09-21T12:11:45;61.27;;;15.50;;
2570;SDS011;1295;51.130;6.732;2022-09-21T12:13:29;66.93;;;21.10;;
2570;SDS011;1295;51.130;6.732;2022-09-21T12:15:59;64.37;;;21.30;;
2570;SDS011;1295;51.130;6.732;2022-09-21T12:18:33;63.13;;;18.50;;
2570;SDS011;1295;51.130;6.732;2022-09-21T12:21:14;68.60;;;22.57;;
2570;SDS011;1295;51.130;6.732;2022-09-21T12:23:42;62.40;;;16.80;;
2570;SDS011;1295;51.130;6.732;2022-09-21T12:26:07;62.07;;;17.33;;
2570;SDS011;1295;51.130;6.732;2022-09-21T12:28:35;66.87;;;15.30;;
2570;SDS011;1295;51.130;6.732;2022-09-21T12:31:06;58.60;;;9.83;;
2570;SDS011;1295;51.130;6.732;2022-09-21T12:33:37;63.30;;;27.77;;
2570;SDS011;1295;51.130;6.732;2022-09-21T12:36:35;69.03;;;34.37;;
2570;SDS011;1295;51.130;6.732;2022-09-21T12:38:47;76.77;;;49.83;;
2570;SDS011;1295;51.130;6.732;2022-09-21T12:41:16;77.03;;;48.97;;
2570;SDS011;1295;51.130;6.732;2022-09-21T12:43:42;65.37;;;23.70;;
2570;SDS011;1295;51.130;6.732;2022-09-21T12:46:24;55.87;;;10.30;;
2570;SDS011;1295;51.130;6.732;2022-09-21T12:48:49;55.50;;;8.80;;
2570;SDS011;1295;51.130;6.732;2022-09-21T12:51:31;70.17;;;33.40;;
2570;SDS011;1295;51.130;6.732;2022-09-21T12:53:57;61.30;;;18.27;;
2570;SDS011;1295;51.130;6.732;2022-09-21T12:56:42;68.33;;;31.43;;
2570;SDS011;1295;51.130;6.732;2022-09-21T12:59:12;68.37;;;24.43;;
2570;SDS011;1295;51.130;6.732;2022-09-21T13:01:36;64.03;;;22.43;;
2570;SDS011;1295;51.130;6.732;2022-09-21T13:07:02;61.67;;;21.97;;
2570;SDS011;1295;51.130;6.732;2022-09-21T13:09:23;63.47;;;24.67;;
2570;SDS011;1295;51.130;6.732;2022-09-21T13:11:51;65.97;;;28.77;;
2570;SDS011;1295;51.130;6.732;2022-09-21T13:14:15;57.40;;;8.33;;
2570;SDS011;1295;51.130;6.732;2022-09-21T13:16:41;71.33;;;28.77;;
2570;SDS011;1295;51.130;6.732;2022-09-21T13:19:20;60.27;;;21.13;;
2570;SDS011;1295;51.130;6.732;2022-09-21T13:22:08;67.93;;;20.25;;
2570;SDS011;1295;51.130;6.732;2022-09-21T13:24:33;64.03;;;23.97;;
2570;SDS011;1295;51.130;6.732;2022-09-21T13:26:58;59.50;;;19.33;;
2570;SDS011;1295;51.130;6.732;2022-09-21T13:29:27;58.77;;;15.47;;
2570;SDS011;1295;51.130;6.732;2022-09-21T13:31:53;57.70;;;10.87;;
2570;SDS011;1295;51.130;6.732;2022-09-21T13:34:34;59.60;;;10.47;;
2570;SDS011;1295;51.130;6.732;2022-09-21T13:37:12;57.40;;;5.07;;
2570;SDS011;1295;51.130;6.732;2022-09-21T13:39:51;57.57;;;11.47;;
2570;SDS011;1295;51.130;6.732;2022-09-21T13:48:17;56.17;;;6.27;;
2570;SDS011;1295;51.130;6.732;2022-09-21T13:50:41;65.13;;;15.93;;
2570;SDS011;1295;51.130;6.732;2022-09-21T13:55:50;59.80;;;12.97;;
2570;SDS011;1295;51.130;6.732;2022-09-21T13:58:18;57.03;;;8.47;;
2570;SDS011;1295;51.130;6.732;2022-09-21T14:00:53;64.13;;;25.67;;
2570;SDS011;1295;51.130;6.732;2022-09-21T14:03:25;61.77;;;25.00;;
2570;SDS011;1295;51.130;6.732;2022-09-21T14:05:54;54.73;;;6.57;;
2570;SDS011;1295;51.130;6.732;2022-09-21T14:08:22;60.63;;;17.73;;
2570;SDS011;1295;51.130;6.732;2022-09-21T14:11:03;64.67;;;31.23;;
2570;SDS011;1295;51.130;6.732;2022-09-21T14:13:30;60.17;;;16.90;;
2570;SDS011;1295;51.130;6.732;2022-09-21T14:15:53;55.80;;;7.37;;
2570;SDS011;1295;51.130;6.732;2022-09-21T14:18:21;60.07;;;16.90;;
2570;SDS011;1295;51.130;6.732;2022-09-21T14:23:26;55.60;;;5.50;;
2570;SDS011;1295;51.130;6.732;2022-09-21T14:25:53;62.80;;;19.47;;
2570;SDS011;1295;51.130;6.732;2022-09-21T14:28:26;89.27;;;79.97;;
2570;SDS011;1295;51.130;6.732;2022-09-21T14:30:55;60.57;;;15.03;;
2570;SDS011;1295;51.130;6.732;2022-09-21T14:33:24;141.23;;;129.73;;
2570;SDS011;1295;51.130;6.732;2022-09-21T14:35:48;64.20;;;25.53;;
2570;SDS011;1295;51.130;6.732;2022-09-21T14:38:18;70.03;;;34.53;;
2570;SDS011;1295;51.130;6.732;2022-09-21T14:40:47;60.03;;;20.17;;
2570;SDS011;1295;51.130;6.732;2022-09-21T14:43:11;145.27;;;134.13;;
2570;SDS011;1295;51.130;6.732;2022-09-21T14:46:49;97.97;;;88.37;;
2570;SDS011;1295;51.130;6.732;2022-09-21T14:48:25;65.33;;;28.03;;
2570;SDS011;1295;51.130;6.732;2022-09-21T14:50:56;142.73;;;131.30;;
2570;SDS011;1295;51.130;6.732;2022-09-21T14:56:01;56.50;;;9.53;;
2570;SDS011;1295;51.130;6.732;2022-09-21T14:58:30;112.20;;;101.50;;
2570;SDS011;1295;51.130;6.732;2022-09-21T15:03:43;111.03;;;100.63;;
2570;SDS011;1295;51.130;6.732;2022-09-21T15:08:55;62.00;;;8.93;;
2570;SDS011;1295;51.130;6.732;2022-09-21T15:11:24;55.73;;;7.90;;
2570;SDS011;1295;51.130;6.732;2022-09-21T15:13:50;60.03;;;13.33;;
2570;SDS011;1295;51.130;6.732;2022-09-21T15:16:29;58.67;;;18.83;;
2570;SDS011;1295;51.130;6.732;2022-09-21T15:19:07;58.90;;;12.50;;
2570;SDS011;1295;51.130;6.732;2022-09-21T15:21:32;59.37;;;14.60;;
2570;SDS011;1295;51.130;6.732;2022-09-21T15:23:59;61.40;;;19.67;;
2570;SDS011;1295;51.130;6.732;2022-09-21T15:26:25;65.43;;;22.10;;
2570;SDS011;1295;51.130;6.732;2022-09-21T15:28:53;62.20;;;16.57;;
2570;SDS011;1295;51.130;6.732;2022-09-21T15:31:18;59.37;;;14.87;;
2570;SDS011;1295;51.130;6.732;2022-09-21T15:33:44;59.70;;;18.10;;
2570;SDS011;1295;51.130;6.732;2022-09-21T15:36:09;61.97;;;18.60;;
2570;SDS011;1295;51.130;6.732;2022-09-21T15:38:35;62.57;;;17.27;;
2570;SDS011;1295;51.130;6.732;2022-09-21T15:41:02;63.10;;;21.70;;
2570;SDS011;1295;51.130;6.732;2022-09-21T15:43:27;58.57;;;15.77;;
2570;SDS011;1295;51.130;6.732;2022-09-21T15:45:55;61.07;;;17.53;;